sensor_id;sensor_type;location;lat;lon;timestamp;pressure;altitude;pressure_sealevel;temperature;humidity
55277;BME280;41136;51.478;-2.610;2023-06-26T00:01:50;100832.70;;;16.20;100.00
55277;BME280;41136;51.478;-2.610;2023-06-26T00:04:16;100837.90;;;16.59;100.00
55277;BME280;41136;51.478;-2.610;2023-06-26T00:06:41;100836.99;;;16.91;100.00
55277;BME280;41136;51.478;-2.610;2023-06-26T00:09:06;100840.27;;;16.86;100.00
55277;BME280;41136;51.478;-2.610;2023-06-26T00:11:31;100846.20;;;16.30;100.00
55277;BME280;41136;51.478;-2.610;2023-06-26T00:13:57;100847.50;;;16.12;100.00
55277;BME280;41136;51.478;-2.610;2023-06-26T00:16:22;100851.91;;;16.81;100.00
55277;BME280;41136;51.478;-2.610;2023-06-26T00:18:47;100854.39;;;16.91;100.00
55277;BME280;41136;51.478;-2.610;2023-06-26T00:21:13;100853.81;;;16.48;100.00
55277;BME280;41136;51.478;-2.610;2023-06-26T00:23:38;100855.31;;;16.70;100.00
55277;BME280;41136;51.478;-2.610;2023-06-26T00:26:04;100854.56;;;17.03;100.00
55277;BME280;41136;51.478;-2.610;2023-06-26T00:28:29;100854.78;;;16.50;100.00
55277;BME280;41136;51.478;-2.610;2023-06-26T00:30:54;100852.89;;;16.53;100.00
55277;BME280;41136;51.478;-2.610;2023-06-26T00:33:19;100854.92;;;16.74;100.00
55277;BME280;41136;51.478;-2.610;2023-06-26T00:35:45;100846.16;;;16.66;100.00
55277;BME280;41136;51.478;-2.610;2023-06-26T00:38:10;100850.09;;;16.08;100.00
55277;BME280;41136;51.478;-2.610;2023-06-26T00:40:36;100842.20;;;16.39;100.00
55277;BME280;41136;51.478;-2.610;2023-06-26T00:43:01;100844.03;;;16.24;100.00
55277;BME280;41136;51.478;-2.610;2023-06-26T00:45:26;100849.17;;;16.10;100.00
55277;BME280;41136;51.478;-2.610;2023-06-26T00:47:52;100842.55;;;16.63;100.00
55277;BME280;41136;51.478;-2.610;2023-06-26T00:50:17;100844.42;;;16.40;100.00
55277;BME280;41136;51.478;-2.610;2023-06-26T00:52:42;100844.20;;;15.86;100.00
55277;BME280;41136;51.478;-2.610;2023-06-26T00:55:09;100848.15;;;15.51;100.00
55277;BME280;41136;51.478;-2.610;2023-06-26T00:57:34;100847.78;;;15.70;100.00
55277;BME280;41136;51.478;-2.610;2023-06-26T00:59:59;100839.82;;;16.62;100.00
55277;BME280;41136;51.478;-2.610;2023-06-26T01:02:24;100846.81;;;15.88;100.00
55277;BME280;41136;51.478;-2.610;2023-06-26T01:04:50;100847.72;;;16.14;100.00
55277;BME280;41136;51.478;-2.610;2023-06-26T01:07:16;100852.75;;;16.39;100.00
55277;BME280;41136;51.478;-2.610;2023-06-26T01:09:40;100858.04;;;16.37;100.00
55277;BME280;41136;51.478;-2.610;2023-06-26T01:12:06;100863.84;;;15.77;100.00
55277;BME280;41136;51.478;-2.610;2023-06-26T01:14:31;100865.30;;;16.49;100.00
55277;BME280;41136;51.478;-2.610;2023-06-26T01:16:56;100861.38;;;16.50;100.00
55277;BME280;41136;51.478;-2.610;2023-06-26T01:19:24;100864.72;;;16.62;100.00
55277;BME280;41136;51.478;-2.610;2023-06-26T01:21:48;100863.52;;;16.76;100.00
55277;BME280;41136;51.478;-2.610;2023-06-26T01:24:16;100871.83;;;16.62;100.00
55277;BME280;41136;51.478;-2.610;2023-06-26T01:26:40;100873.22;;;15.97;100.00
55277;BME280;41136;51.478;-2.610;2023-06-26T01:29:06;100869.52;;;16.50;100.00
55277;BME280;41136;51.478;-2.610;2023-06-26T01:31:30;100865.62;;;16.67;100.00
55277;BME280;41136;51.478;-2.610;2023-06-26T01:33:57;100866.82;;;17.00;100.00
55277;BME280;41136;51.478;-2.610;2023-06-26T01:36:21;100867.74;;;16.78;100.00
55277;BME280;41136;51.478;-2.610;2023-06-26T01:38:46;100870.75;;;16.56;100.00
55277;BME280;41136;51.478;-2.610;2023-06-26T01:41:11;100880.42;;;16.52;100.00
55277;BME280;41136;51.478;-2.610;2023-06-26T01:43:43;100882.21;;;16.35;100.00
55277;BME280;41136;51.478;-2.610;2023-06-26T01:46:06;100883.81;;;16.64;100.00
55277;BME280;41136;51.478;-2.610;2023-06-26T01:48:33;100889.00;;;16.16;100.00
55277;BME280;41136;51.478;-2.610;2023-06-26T01:50:53;100885.98;;;16.19;100.00
55277;BME280;41136;51.478;-2.610;2023-06-26T01:53:23;100883.26;;;16.61;100.00
55277;BME280;41136;51.478;-2.610;2023-06-26T01:55:49;100890.65;;;16.32;100.00
55277;BME280;41136;51.478;-2.610;2023-06-26T01:58:10;100887.11;;;16.89;100.00
55277;BME280;41136;51.478;-2.610;2023-06-26T02:00:35;100891.67;;;16.95;100.00
55277;BME280;41136;51.478;-2.610;2023-06-26T02:03:00;100891.27;;;16.78;100.00
55277;BME280;41136;51.478;-2.610;2023-06-26T02:05:25;100885.06;;;16.70;100.00
55277;BME280;41136;51.478;-2.610;2023-06-26T02:07:50;100886.75;;;16.76;100.00
55277;BME280;41136;51.478;-2.610;2023-06-26T02:10:16;100887.96;;;16.69;100.00
55277;BME280;41136;51.478;-2.610;2023-06-26T02:12:41;100889.21;;;16.54;100.00
55277;BME280;41136;51.478;-2.610;2023-06-26T02:15:08;100892.76;;;16.32;100.00
55277;BME280;41136;51.478;-2.610;2023-06-26T02:17:32;100888.84;;;16.24;100.00
55277;BME280;41136;51.478;-2.610;2023-06-26T02:19:58;100882.50;;;17.22;100.00
55277;BME280;41136;51.478;-2.610;2023-06-26T02:22:23;100882.61;;;17.16;100.00
55277;BME280;41136;51.478;-2.610;2023-06-26T02:24:48;100881.04;;;16.96;100.00
55277;BME280;41136;51.478;-2.610;2023-06-26T02:27:13;100881.69;;;16.37;100.00
55277;BME280;41136;51.478;-2.610;2023-06-26T02:29:40;100888.07;;;16.65;100.00
55277;BME280;41136;51.478;-2.610;2023-06-26T02:32:06;100887.76;;;16.52;100.00
55277;BME280;41136;51.478;-2.610;2023-06-26T02:34:30;100888.68;;;17.20;100.00
55277;BME280;41136;51.478;-2.610;2023-06-26T02:36:56;100889.60;;;16.88;100.00
55277;BME280;41136;51.478;-2.610;2023-06-26T02:39:21;100888.57;;;17.30;100.00
55277;BME280;41136;51.478;-2.610;2023-06-26T02:41:46;100890.87;;;16.62;100.00
55277;BME280;41136;51.478;-2.610;2023-06-26T02:44:12;100887.97;;;16.80;100.00
55277;BME280;41136;51.478;-2.610;2023-06-26T02:46:38;100890.50;;;17.33;100.00
55277;BME280;41136;51.478;-2.610;2023-06-26T02:49:03;100891.95;;;17.24;100.00
55277;BME280;41136;51.478;-2.610;2023-06-26T02:51:29;100891.86;;;17.09;100.00
55277;BME280;41136;51.478;-2.610;2023-06-26T02:53:54;100889.32;;;16.71;100.00
55277;BME280;41136;51.478;-2.610;2023-06-26T02:56:20;100894.85;;;17.04;100.00
55277;BME280;41136;51.478;-2.610;2023-06-26T02:58:45;100897.18;;;17.36;100.00
55277;BME280;41136;51.478;-2.610;2023-06-26T03:01:10;100898.68;;;17.03;100.00
55277;BME280;41136;51.478;-2.610;2023-06-26T03:03:35;100901.50;;;17.18;100.00
55277;BME280;41136;51.478;-2.610;2023-06-26T03:06:01;100899.31;;;16.65;100.00
55277;BME280;41136;51.478;-2.610;2023-06-26T03:08:26;100900.79;;;16.79;100.00
55277;BME280;41136;51.478;-2.610;2023-06-26T03:10:51;100907.84;;;16.16;100.00
55277;BME280;41136;51.478;-2.610;2023-06-26T03:13:17;100914.98;;;16.70;100.00
55277;BME280;41136;51.478;-2.610;2023-06-26T03:15:43;100921.76;;;17.06;100.00
55277;BME280;41136;51.478;-2.610;2023-06-26T03:18:08;100927.61;;;16.56;100.00
55277;BME280;41136;51.478;-2.610;2023-06-26T03:20:33;100928.74;;;16.93;100.00
55277;BME280;41136;51.478;-2.610;2023-06-26T03:22:58;100926.46;;;17.56;100.00
55277;BME280;41136;51.478;-2.610;2023-06-26T03:25:24;100929.73;;;17.55;99.68
55277;BME280;41136;51.478;-2.610;2023-06-26T03:27:49;100930.34;;;17.62;98.43
55277;BME280;41136;51.478;-2.610;2023-06-26T03:30:16;100932.45;;;17.80;95.67
55277;BME280;41136;51.478;-2.610;2023-06-26T03:32:40;100931.05;;;16.80;96.68
55277;BME280;41136;51.478;-2.610;2023-06-26T03:35:06;100935.80;;;16.73;99.29
55277;BME280;41136;51.478;-2.610;2023-06-26T03:37:30;100933.70;;;16.93;97.24
55277;BME280;41136;51.478;-2.610;2023-06-26T03:39:56;100936.27;;;17.63;95.41
55277;BME280;41136;51.478;-2.610;2023-06-26T03:42:22;100937.41;;;17.31;94.89
55277;BME280;41136;51.478;-2.610;2023-06-26T03:44:46;100939.27;;;16.93;95.87
55277;BME280;41136;51.478;-2.610;2023-06-26T03:47:12;100947.73;;;17.08;95.31
55277;BME280;41136;51.478;-2.610;2023-06-26T03:49:37;100948.36;;;17.81;94.70
55277;BME280;41136;51.478;-2.610;2023-06-26T03:52:02;100953.20;;;16.59;96.64
55277;BME280;41136;51.478;-2.610;2023-06-26T03:54:28;100947.73;;;16.95;96.31
55277;BME280;41136;51.478;-2.610;2023-06-26T03:56:53;100952.53;;;16.93;96.91
55277;BME280;41136;51.478;-2.610;2023-06-26T03:59:18;100959.57;;;16.88;98.53
55277;BME280;41136;51.478;-2.610;2023-06-26T04:01:44;100958.41;;;16.91;97.51
55277;BME280;41136;51.478;-2.610;2023-06-26T04:04:09;100960.32;;;16.49;99.13
55277;BME280;41136;51.478;-2.610;2023-06-26T04:06:34;100970.42;;;16.06;100.00
55277;BME280;41136;51.478;-2.610;2023-06-26T04:09:00;100980.07;;;16.44;99.93
55277;BME280;41136;51.478;-2.610;2023-06-26T04:15:44;100974.98;;;17.01;94.20
55277;BME280;41136;51.478;-2.610;2023-06-26T04:18:09;100982.40;;;16.71;93.73
55277;BME280;41136;51.478;-2.610;2023-06-26T04:20:39;100982.18;;;17.03;93.95
55277;BME280;41136;51.478;-2.610;2023-06-26T04:23:00;100984.31;;;16.78;94.88
55277;BME280;41136;51.478;-2.610;2023-06-26T04:25:26;100990.54;;;17.18;94.65
55277;BME280;41136;51.478;-2.610;2023-06-26T04:27:51;100994.13;;;16.93;97.13
55277;BME280;41136;51.478;-2.610;2023-06-26T04:30:17;100989.25;;;17.17;96.89
55277;BME280;41136;51.478;-2.610;2023-06-26T04:32:42;100996.53;;;16.94;97.04
55277;BME280;41136;51.478;-2.610;2023-06-26T04:35:07;100997.30;;;16.41;99.12
55277;BME280;41136;51.478;-2.610;2023-06-26T04:37:33;101000.31;;;16.51;99.52
55277;BME280;41136;51.478;-2.610;2023-06-26T04:39:57;101006.22;;;16.97;98.85
55277;BME280;41136;51.478;-2.610;2023-06-26T04:42:23;101008.12;;;16.87;98.89
55277;BME280;41136;51.478;-2.610;2023-06-26T04:44:48;101007.33;;;17.16;97.81
55277;BME280;41136;51.478;-2.610;2023-06-26T04:47:13;101012.65;;;17.01;97.78
55277;BME280;41136;51.478;-2.610;2023-06-26T04:49:39;101019.40;;;16.30;99.79
55277;BME280;41136;51.478;-2.610;2023-06-26T04:52:04;101021.93;;;16.41;99.48
55277;BME280;41136;51.478;-2.610;2023-06-26T04:54:29;101014.37;;;16.97;98.20
55277;BME280;41136;51.478;-2.610;2023-06-26T04:56:55;101012.71;;;17.12;97.39
55277;BME280;41136;51.478;-2.610;2023-06-26T04:59:20;101017.29;;;16.89;98.30
55277;BME280;41136;51.478;-2.610;2023-06-26T05:01:45;101022.65;;;16.53;99.13
55277;BME280;41136;51.478;-2.610;2023-06-26T05:04:11;101030.58;;;16.35;98.67
55277;BME280;41136;51.478;-2.610;2023-06-26T05:06:36;101033.98;;;15.92;100.00
55277;BME280;41136;51.478;-2.610;2023-06-26T05:09:01;101032.57;;;16.38;100.00
55277;BME280;41136;51.478;-2.610;2023-06-26T05:11:26;101032.96;;;16.55;98.59
55277;BME280;41136;51.478;-2.610;2023-06-26T05:13:52;101034.04;;;16.58;97.43
55277;BME280;41136;51.478;-2.610;2023-06-26T05:16:17;101032.90;;;16.94;97.47
55277;BME280;41136;51.478;-2.610;2023-06-26T05:18:42;101027.52;;;16.76;96.93
55277;BME280;41136;51.478;-2.610;2023-06-26T05:21:08;101030.90;;;16.18;97.42
55277;BME280;41136;51.478;-2.610;2023-06-26T05:23:34;101032.84;;;16.83;96.86
55277;BME280;41136;51.478;-2.610;2023-06-26T05:25:59;101039.02;;;16.78;95.42
55277;BME280;41136;51.478;-2.610;2023-06-26T05:28:24;101037.87;;;16.93;94.36
55277;BME280;41136;51.478;-2.610;2023-06-26T05:30:49;101041.39;;;16.57;94.29
55277;BME280;41136;51.478;-2.610;2023-06-26T05:33:14;101040.95;;;16.94;93.82
55277;BME280;41136;51.478;-2.610;2023-06-26T05:35:41;101045.91;;;17.00;93.25
55277;BME280;41136;51.478;-2.610;2023-06-26T05:38:05;101052.27;;;16.38;94.73
55277;BME280;41136;51.478;-2.610;2023-06-26T05:40:30;101055.25;;;16.62;93.32
55277;BME280;41136;51.478;-2.610;2023-06-26T05:42:56;101063.08;;;16.24;94.39
55277;BME280;41136;51.478;-2.610;2023-06-26T05:45:21;101060.59;;;16.55;95.16
55277;BME280;41136;51.478;-2.610;2023-06-26T05:47:46;101064.18;;;15.97;95.83
55277;BME280;41136;51.478;-2.610;2023-06-26T05:50:13;101066.03;;;16.18;95.20
55277;BME280;41136;51.478;-2.610;2023-06-26T05:52:37;101068.55;;;16.25;95.24
55277;BME280;41136;51.478;-2.610;2023-06-26T05:55:02;101066.82;;;17.07;93.04
55277;BME280;41136;51.478;-2.610;2023-06-26T05:57:28;101069.66;;;16.74;93.21
55277;BME280;41136;51.478;-2.610;2023-06-26T05:59:53;101072.64;;;16.23;92.69
55277;BME280;41136;51.478;-2.610;2023-06-26T06:02:18;101073.58;;;16.80;92.01
55277;BME280;41136;51.478;-2.610;2023-06-26T06:04:43;101078.73;;;16.85;91.67
55277;BME280;41136;51.478;-2.610;2023-06-26T06:07:09;101082.94;;;17.31;89.76
55277;BME280;41136;51.478;-2.610;2023-06-26T06:09:34;101081.14;;;16.92;88.91
55277;BME280;41136;51.478;-2.610;2023-06-26T06:11:59;101080.25;;;16.67;89.94
55277;BME280;41136;51.478;-2.610;2023-06-26T06:14:24;101085.59;;;16.46;89.81
55277;BME280;41136;51.478;-2.610;2023-06-26T06:16:50;101085.46;;;16.65;90.73
55277;BME280;41136;51.478;-2.610;2023-06-26T06:19:15;101083.77;;;16.53;91.07
55277;BME280;41136;51.478;-2.610;2023-06-26T06:21:40;101079.44;;;16.52;92.79
55277;BME280;41136;51.478;-2.610;2023-06-26T06:24:06;101080.32;;;16.67;93.58
55277;BME280;41136;51.478;-2.610;2023-06-26T06:26:31;101083.62;;;16.80;94.67
55277;BME280;41136;51.478;-2.610;2023-06-26T06:28:56;101087.10;;;16.90;93.53
55277;BME280;41136;51.478;-2.610;2023-06-26T06:31:21;101091.21;;;17.39;91.86
55277;BME280;41136;51.478;-2.610;2023-06-26T06:33:47;101097.53;;;16.77;91.79
55277;BME280;41136;51.478;-2.610;2023-06-26T06:36:12;101103.08;;;17.35;90.55
55277;BME280;41136;51.478;-2.610;2023-06-26T06:38:37;101111.78;;;17.18;91.39
55277;BME280;41136;51.478;-2.610;2023-06-26T06:41:03;101113.70;;;17.13;91.69
55277;BME280;41136;51.478;-2.610;2023-06-26T06:43:28;101115.07;;;17.20;92.51
55277;BME280;41136;51.478;-2.610;2023-06-26T06:45:53;101114.15;;;17.37;91.65
55277;BME280;41136;51.478;-2.610;2023-06-26T06:48:18;101120.53;;;16.74;93.41
55277;BME280;41136;51.478;-2.610;2023-06-26T06:50:44;101120.27;;;16.96;93.70
55277;BME280;41136;51.478;-2.610;2023-06-26T06:53:09;101132.62;;;16.78;94.18
55277;BME280;41136;51.478;-2.610;2023-06-26T06:55:34;101129.23;;;16.61;94.97
55277;BME280;41136;51.478;-2.610;2023-06-26T06:58:00;101133.02;;;16.68;95.32
55277;BME280;41136;51.478;-2.610;2023-06-26T07:00:25;101135.55;;;16.67;95.32
55277;BME280;41136;51.478;-2.610;2023-06-26T07:02:50;101143.60;;;16.32;97.47
55277;BME280;41136;51.478;-2.610;2023-06-26T07:05:16;101145.03;;;16.12;96.50
55277;BME280;41136;51.478;-2.610;2023-06-26T07:07:41;101150.59;;;16.72;94.33
55277;BME280;41136;51.478;-2.610;2023-06-26T07:10:08;101159.99;;;16.45;93.27
55277;BME280;41136;51.478;-2.610;2023-06-26T07:12:32;101155.04;;;16.73;91.73
55277;BME280;41136;51.478;-2.610;2023-06-26T07:14:57;101148.45;;;17.25;90.80
55277;BME280;41136;51.478;-2.610;2023-06-26T07:17:22;101151.45;;;17.46;88.76
55277;BME280;41136;51.478;-2.610;2023-06-26T07:19:47;101163.23;;;16.78;88.75
55277;BME280;41136;51.478;-2.610;2023-06-26T07:22:12;101164.37;;;16.50;90.42
55277;BME280;41136;51.478;-2.610;2023-06-26T07:24:38;101162.39;;;17.12;90.64
55277;BME280;41136;51.478;-2.610;2023-06-26T07:27:03;101166.49;;;17.40;88.45
55277;BME280;41136;51.478;-2.610;2023-06-26T07:29:28;101173.39;;;17.10;87.52
55277;BME280;41136;51.478;-2.610;2023-06-26T07:31:54;101172.16;;;17.59;87.45
55277;BME280;41136;51.478;-2.610;2023-06-26T07:34:19;101164.73;;;17.62;86.05
55277;BME280;41136;51.478;-2.610;2023-06-26T07:36:44;101159.90;;;17.53;87.31
55277;BME280;41136;51.478;-2.610;2023-06-26T07:39:09;101157.41;;;17.88;88.29
55277;BME280;41136;51.478;-2.610;2023-06-26T07:41:35;101164.27;;;17.36;86.77
55277;BME280;41136;51.478;-2.610;2023-06-26T07:44:00;101168.46;;;17.67;85.70
55277;BME280;41136;51.478;-2.610;2023-06-26T07:46:25;101166.43;;;17.98;83.89
55277;BME280;41136;51.478;-2.610;2023-06-26T07:48:51;101173.44;;;17.76;82.83
55277;BME280;41136;51.478;-2.610;2023-06-26T07:51:16;101167.26;;;17.63;83.37
55277;BME280;41136;51.478;-2.610;2023-06-26T07:53:42;101173.81;;;17.75;83.44
55277;BME280;41136;51.478;-2.610;2023-06-26T07:56:07;101175.91;;;17.22;83.51
55277;BME280;41136;51.478;-2.610;2023-06-26T07:58:32;101174.59;;;16.85;83.21
55277;BME280;41136;51.478;-2.610;2023-06-26T08:00:58;101173.91;;;17.80;82.21
55277;BME280;41136;51.478;-2.610;2023-06-26T08:03:23;101175.63;;;17.50;80.76
55277;BME280;41136;51.478;-2.610;2023-06-26T08:05:48;101176.34;;;17.33;81.15
55277;BME280;41136;51.478;-2.610;2023-06-26T08:08:13;101177.47;;;17.49;81.49
55277;BME280;41136;51.478;-2.610;2023-06-26T08:10:39;101179.75;;;17.85;81.50
55277;BME280;41136;51.478;-2.610;2023-06-26T08:13:04;101174.28;;;18.63;80.85
55277;BME280;41136;51.478;-2.610;2023-06-26T08:15:29;101174.72;;;17.79;81.74
55277;BME280;41136;51.478;-2.610;2023-06-26T08:17:55;101173.92;;;18.31;81.64
55277;BME280;41136;51.478;-2.610;2023-06-26T08:20:20;101176.47;;;18.54;81.10
55277;BME280;41136;51.478;-2.610;2023-06-26T08:22:45;101177.59;;;18.15;80.41
55277;BME280;41136;51.478;-2.610;2023-06-26T08:25:10;101178.60;;;18.75;78.80
55277;BME280;41136;51.478;-2.610;2023-06-26T08:27:36;101184.57;;;17.75;82.52
55277;BME280;41136;51.478;-2.610;2023-06-26T08:30:01;101180.91;;;18.41;81.43
55277;BME280;41136;51.478;-2.610;2023-06-26T08:32:26;101181.09;;;18.36;80.43
55277;BME280;41136;51.478;-2.610;2023-06-26T08:34:51;101183.64;;;18.20;78.69
55277;BME280;41136;51.478;-2.610;2023-06-26T08:37:17;101185.31;;;17.74;76.09
55277;BME280;41136;51.478;-2.610;2023-06-26T08:39:42;101186.73;;;18.06;76.15
55277;BME280;41136;51.478;-2.610;2023-06-26T08:42:08;101188.07;;;18.15;78.52
55277;BME280;41136;51.478;-2.610;2023-06-26T08:44:33;101183.04;;;17.74;78.64
55277;BME280;41136;51.478;-2.610;2023-06-26T08:46:59;101184.36;;;18.59;76.50
55277;BME280;41136;51.478;-2.610;2023-06-26T08:49:28;101189.85;;;18.07;75.55
55277;BME280;41136;51.478;-2.610;2023-06-26T08:51:52;101189.71;;;17.72;75.76
55277;BME280;41136;51.478;-2.610;2023-06-26T08:54:16;101185.54;;;17.62;78.02
55277;BME280;41136;51.478;-2.610;2023-06-26T08:56:42;101188.19;;;17.82;79.86
55277;BME280;41136;51.478;-2.610;2023-06-26T08:59:06;101186.84;;;17.13;81.21
55277;BME280;41136;51.478;-2.610;2023-06-26T09:01:31;101189.87;;;17.27;82.54
55277;BME280;41136;51.478;-2.610;2023-06-26T09:03:56;101188.44;;;17.77;81.99
55277;BME280;41136;51.478;-2.610;2023-06-26T09:06:21;101188.90;;;18.22;79.26
55277;BME280;41136;51.478;-2.610;2023-06-26T09:08:47;101188.60;;;18.47;78.63
55277;BME280;41136;51.478;-2.610;2023-06-26T09:11:12;101187.16;;;17.64;77.97
55277;BME280;41136;51.478;-2.610;2023-06-26T09:13:38;101190.00;;;17.46;78.59
55277;BME280;41136;51.478;-2.610;2023-06-26T09:16:06;101189.84;;;18.37;77.20
55277;BME280;41136;51.478;-2.610;2023-06-26T09:18:28;101190.74;;;18.17;75.77
55277;BME280;41136;51.478;-2.610;2023-06-26T09:20:54;101198.15;;;18.44;75.05
55277;BME280;41136;51.478;-2.610;2023-06-26T09:23:18;101195.29;;;18.25;75.56
55277;BME280;41136;51.478;-2.610;2023-06-26T09:25:44;101196.88;;;17.89;74.52
55277;BME280;41136;51.478;-2.610;2023-06-26T09:28:09;101193.11;;;18.19;74.36
55277;BME280;41136;51.478;-2.610;2023-06-26T09:30:35;101192.50;;;18.22;75.91
55277;BME280;41136;51.478;-2.610;2023-06-26T09:35:27;101198.18;;;17.87;74.23
55277;BME280;41136;51.478;-2.610;2023-06-26T09:37:50;101198.80;;;18.07;73.93
55277;BME280;41136;51.478;-2.610;2023-06-26T09:40:15;101197.73;;;18.22;73.36
55277;BME280;41136;51.478;-2.610;2023-06-26T09:42:41;101204.17;;;18.01;73.41
55277;BME280;41136;51.478;-2.610;2023-06-26T09:45:07;101210.35;;;17.87;73.41
55277;BME280;41136;51.478;-2.610;2023-06-26T09:47:34;101212.40;;;17.99;73.25
55277;BME280;41136;51.478;-2.610;2023-06-26T09:49:57;101210.64;;;17.98;71.38
55277;BME280;41136;51.478;-2.610;2023-06-26T09:52:26;101224.34;;;18.58;71.31
55277;BME280;41136;51.478;-2.610;2023-06-26T09:54:48;101222.23;;;18.42;72.65
55277;BME280;41136;51.478;-2.610;2023-06-26T09:57:16;101223.25;;;18.71;71.56
55277;BME280;41136;51.478;-2.610;2023-06-26T09:59:39;101229.38;;;18.58;72.43
55277;BME280;41136;51.478;-2.610;2023-06-26T10:02:04;101229.65;;;17.77;74.42
55277;BME280;41136;51.478;-2.610;2023-06-26T10:04:29;101230.39;;;19.07;73.54
55277;BME280;41136;51.478;-2.610;2023-06-26T10:06:56;101243.77;;;18.51;71.85
55277;BME280;41136;51.478;-2.610;2023-06-26T10:09:20;101245.79;;;18.35;70.31
55277;BME280;41136;51.478;-2.610;2023-06-26T10:11:50;101242.28;;;18.62;69.42
55277;BME280;41136;51.478;-2.610;2023-06-26T10:14:16;101242.43;;;19.19;68.22
55277;BME280;41136;51.478;-2.610;2023-06-26T10:16:36;101232.74;;;19.45;67.14
55277;BME280;41136;51.478;-2.610;2023-06-26T10:19:03;101248.25;;;18.73;68.48
55277;BME280;41136;51.478;-2.610;2023-06-26T10:21:27;101238.78;;;19.40;67.90
55277;BME280;41136;51.478;-2.610;2023-06-26T10:23:52;101242.77;;;19.53;66.68
55277;BME280;41136;51.478;-2.610;2023-06-26T10:26:18;101242.72;;;19.68;66.85
55277;BME280;41136;51.478;-2.610;2023-06-26T10:28:44;101244.64;;;19.86;65.51
55277;BME280;41136;51.478;-2.610;2023-06-26T10:31:07;101249.62;;;19.70;63.87
55277;BME280;41136;51.478;-2.610;2023-06-26T10:33:33;101245.21;;;19.17;64.25
55277;BME280;41136;51.478;-2.610;2023-06-26T10:40:48;101244.82;;;20.08;64.25
55277;BME280;41136;51.478;-2.610;2023-06-26T10:43:14;101247.78;;;20.13;63.42
55277;BME280;41136;51.478;-2.610;2023-06-26T10:45:44;101246.46;;;19.99;62.29
55277;BME280;41136;51.478;-2.610;2023-06-26T10:48:04;101242.06;;;20.45;60.28
55277;BME280;41136;51.478;-2.610;2023-06-26T10:50:30;101247.77;;;20.31;57.71
55277;BME280;41136;51.478;-2.610;2023-06-26T10:55:27;101264.08;;;20.10;59.51
55277;BME280;41136;51.478;-2.610;2023-06-26T10:57:46;101266.19;;;20.09;58.22
55277;BME280;41136;51.478;-2.610;2023-06-26T11:00:11;101266.39;;;19.82;57.03
55277;BME280;41136;51.478;-2.610;2023-06-26T11:05:00;101270.04;;;19.61;61.94
55277;BME280;41136;51.478;-2.610;2023-06-26T11:07:26;101275.11;;;20.80;61.51
55277;BME280;41136;51.478;-2.610;2023-06-26T11:09:56;101275.76;;;19.78;60.66
55277;BME280;41136;51.478;-2.610;2023-06-26T11:14:42;101274.27;;;19.81;58.59
55277;BME280;41136;51.478;-2.610;2023-06-26T11:17:07;101273.28;;;19.98;57.90
55277;BME280;41136;51.478;-2.610;2023-06-26T11:19:32;101274.90;;;20.88;58.80
55277;BME280;41136;51.478;-2.610;2023-06-26T11:21:59;101276.36;;;20.30;60.57
55277;BME280;41136;51.478;-2.610;2023-06-26T11:24:23;101269.18;;;20.94;60.71
55277;BME280;41136;51.478;-2.610;2023-06-26T11:26:48;101277.78;;;20.66;60.22
55277;BME280;41136;51.478;-2.610;2023-06-26T11:29:13;101282.86;;;20.56;59.16
55277;BME280;41136;51.478;-2.610;2023-06-26T11:31:40;101284.86;;;20.87;59.00
55277;BME280;41136;51.478;-2.610;2023-06-26T11:34:06;101288.15;;;20.44;57.02
55277;BME280;41136;51.478;-2.610;2023-06-26T11:36:29;101286.44;;;20.21;57.40
55277;BME280;41136;51.478;-2.610;2023-06-26T11:38:54;101289.88;;;19.79;58.42
55277;BME280;41136;51.478;-2.610;2023-06-26T11:41:19;101289.31;;;20.37;59.59
55277;BME280;41136;51.478;-2.610;2023-06-26T11:43:44;101291.69;;;20.65;60.47
55277;BME280;41136;51.478;-2.610;2023-06-26T11:46:10;101296.23;;;20.51;60.80
55277;BME280;41136;51.478;-2.610;2023-06-26T11:48:35;101289.42;;;19.84;61.43
55277;BME280;41136;51.478;-2.610;2023-06-26T11:51:00;101288.17;;;20.57;61.21
55277;BME280;41136;51.478;-2.610;2023-06-26T11:53:25;101287.82;;;20.55;60.93
55277;BME280;41136;51.478;-2.610;2023-06-26T11:55:51;101301.09;;;19.99;59.57
55277;BME280;41136;51.478;-2.610;2023-06-26T11:58:16;101303.66;;;19.92;60.96
55277;BME280;41136;51.478;-2.610;2023-06-26T12:00:42;101300.80;;;19.67;62.05
55277;BME280;41136;51.478;-2.610;2023-06-26T12:03:07;101296.67;;;20.06;61.35
55277;BME280;41136;51.478;-2.610;2023-06-26T12:05:32;101292.05;;;19.86;61.40
55277;BME280;41136;51.478;-2.610;2023-06-26T12:07:57;101287.63;;;20.12;62.59
55277;BME280;41136;51.478;-2.610;2023-06-26T12:10:22;101288.23;;;20.60;62.93
55277;BME280;41136;51.478;-2.610;2023-06-26T12:12:48;101293.71;;;20.04;59.00
55277;BME280;41136;51.478;-2.610;2023-06-26T12:15:14;101288.66;;;20.26;62.59
55277;BME280;41136;51.478;-2.610;2023-06-26T12:17:38;101289.65;;;20.50;63.18
55277;BME280;41136;51.478;-2.610;2023-06-26T12:20:04;101294.03;;;20.23;62.85
55277;BME280;41136;51.478;-2.610;2023-06-26T12:22:34;101283.77;;;20.94;62.65
55277;BME280;41136;51.478;-2.610;2023-06-26T12:24:56;101290.93;;;21.23;62.59
55277;BME280;41136;51.478;-2.610;2023-06-26T12:27:19;101291.79;;;20.70;61.23
55277;BME280;41136;51.478;-2.610;2023-06-26T12:29:49;101294.06;;;20.26;61.22
55277;BME280;41136;51.478;-2.610;2023-06-26T12:32:10;101294.05;;;20.63;60.89
55277;BME280;41136;51.478;-2.610;2023-06-26T12:34:37;101298.81;;;20.54;55.55
55277;BME280;41136;51.478;-2.610;2023-06-26T12:37:02;101292.01;;;20.21;57.29
55277;BME280;41136;51.478;-2.610;2023-06-26T12:39:25;101297.94;;;20.20;53.29
55277;BME280;41136;51.478;-2.610;2023-06-26T12:41:53;101301.24;;;19.95;55.03
55277;BME280;41136;51.478;-2.610;2023-06-26T12:44:19;101294.16;;;19.69;53.02
55277;BME280;41136;51.478;-2.610;2023-06-26T12:46:41;101286.85;;;20.55;53.42